createdAt,value
2018-08-23T00:01:34.923Z,100662.00
2018-08-23T00:04:11.448Z,100655.00
2018-08-23T00:06:47.709Z,100663.00
2018-08-23T00:09:17.569Z,100663.00
2018-08-23T00:11:47.991Z,100655.00
2018-08-23T00:14:17.953Z,100658.00
2018-08-23T00:16:48.379Z,100666.00
2018-08-23T00:19:18.687Z,100660.00
2018-08-23T00:21:49.696Z,100666.00
2018-08-23T00:24:20.659Z,100657.00
2018-08-23T00:26:58.376Z,100664.00
2018-08-23T00:29:32.417Z,100662.00
2018-08-23T00:32:07.019Z,100653.00
2018-08-23T00:34:40.401Z,100662.00
2018-08-23T00:37:10.437Z,100663.00
2018-08-23T00:39:39.869Z,100661.00
2018-08-23T00:42:12.105Z,100658.00
2018-08-23T00:45:02.297Z,100664.00
2018-08-23T00:47:32.942Z,100648.00
2018-08-23T00:50:02.223Z,100654.00
2018-08-23T00:52:39.808Z,100650.00
2018-08-23T00:55:16.702Z,100657.00
2018-08-23T00:57:47.096Z,100666.00
2018-08-23T01:00:19.192Z,100648.00
2018-08-23T01:02:56.220Z,100660.00
2018-08-23T01:05:30.650Z,100651.00
2018-08-23T01:08:00.760Z,100653.00
2018-08-23T01:10:30.114Z,100655.00
2018-08-23T01:13:01.375Z,100650.00
2018-08-23T01:15:31.906Z,100644.00
2018-08-23T01:18:14.565Z,100650.00
2018-08-23T01:20:45.608Z,100644.00
2018-08-23T01:23:15.102Z,100645.00
2018-08-23T01:25:45.906Z,100647.00
2018-08-23T01:28:15.773Z,100651.00
2018-08-23T01:30:46.477Z,100643.00
2018-08-23T01:33:17.681Z,100648.00
2018-08-23T01:35:48.547Z,100643.00
2018-08-23T01:38:18.436Z,100648.00
2018-08-23T01:40:47.977Z,100642.00
2018-08-23T01:43:17.481Z,100637.00
2018-08-23T01:45:47.016Z,100638.00
2018-08-23T01:48:16.898Z,100638.00
2018-08-23T01:50:46.632Z,100638.00
2018-08-23T01:53:16.990Z,100643.00
2018-08-23T01:55:46.216Z,100632.00
2018-08-23T01:58:16.536Z,100625.00
2018-08-23T02:00:46.858Z,100634.00
2018-08-23T02:03:16.664Z,100637.00
2018-08-23T02:05:46.544Z,100633.00
2018-08-23T02:08:15.953Z,100618.00
2018-08-23T02:10:45.764Z,100623.00
2018-08-23T02:13:23.704Z,100621.00
2018-08-23T02:15:53.232Z,100616.00
2018-08-23T02:18:22.672Z,100612.00
2018-08-23T02:20:56.198Z,100610.00
2018-08-23T02:23:26.038Z,100613.00
2018-08-23T02:25:55.426Z,100613.00
2018-08-23T02:28:24.766Z,100601.00
2018-08-23T02:30:56.207Z,100606.00
2018-08-23T02:33:26.587Z,100611.00
2018-08-23T02:36:19.056Z,100601.00
2018-08-23T02:38:53.687Z,100601.00
2018-08-23T02:41:23.529Z,100600.00
2018-08-23T02:43:53.110Z,100597.00
2018-08-23T02:46:22.668Z,100601.00
2018-08-23T02:48:52.265Z,100601.00
2018-08-23T02:51:25.943Z,100604.00
2018-08-23T02:53:56.091Z,100601.00
2018-08-23T02:56:25.755Z,100603.00
2018-08-23T02:59:00.957Z,100594.00
2018-08-23T03:01:33.685Z,100597.00
2018-08-23T03:04:13.013Z,100589.00
2018-08-23T03:07:12.877Z,100582.00
2018-08-23T03:09:44.673Z,100594.00
2018-08-23T03:12:19.059Z,100593.00
2018-08-23T03:14:48.929Z,100588.00
2018-08-23T03:17:22.483Z,100592.00
2018-08-23T03:20:10.492Z,100594.00
2018-08-23T03:22:40.474Z,100592.00
2018-08-23T03:25:17.323Z,100596.00
2018-08-23T03:27:47.206Z,100583.00
2018-08-23T03:30:17.710Z,100583.00
2018-08-23T03:32:47.058Z,100590.00
2018-08-23T03:35:16.363Z,100597.00
2018-08-23T03:37:45.577Z,100587.00
2018-08-23T03:40:16.461Z,100582.00
2018-08-23T03:42:45.862Z,100580.00
2018-08-23T03:45:20.387Z,100581.00
2018-08-23T03:47:50.425Z,100587.00
2018-08-23T03:50:19.787Z,100594.00
2018-08-23T03:52:50.359Z,100592.00
2018-08-23T03:55:22.026Z,100592.00
2018-08-23T03:58:05.913Z,100594.00
2018-08-23T04:00:45.075Z,100594.00
2018-08-23T04:03:18.989Z,100590.00
2018-08-23T04:05:48.521Z,100596.00
2018-08-23T04:08:17.617Z,100580.00
2018-08-23T04:10:46.835Z,100587.00
2018-08-23T04:13:16.208Z,100594.00
2018-08-23T04:15:45.783Z,100586.00
2018-08-23T04:18:17.327Z,100589.00
2018-08-23T04:20:53.167Z,100597.00
2018-08-23T04:23:23.120Z,100592.00
2018-08-23T04:25:52.869Z,100592.00
2018-08-23T04:28:22.526Z,100589.00
2018-08-23T04:30:52.409Z,100594.00
2018-08-23T04:33:22.598Z,100590.00
2018-08-23T04:35:52.580Z,100592.00
2018-08-23T04:38:22.855Z,100587.00
2018-08-23T04:41:09.905Z,100590.00
2018-08-23T04:43:40.785Z,100587.00
2018-08-23T04:46:17.379Z,100591.00
2018-08-23T04:48:48.370Z,100586.00
2018-08-23T04:51:18.690Z,100591.00
2018-08-23T04:53:49.197Z,100576.00
2018-08-23T04:56:20.033Z,100579.00
2018-08-23T04:58:51.023Z,100583.00
2018-08-23T05:01:21.613Z,100577.00
2018-08-23T05:03:53.178Z,100588.00
2018-08-23T05:06:23.775Z,100574.00
2018-08-23T05:08:54.860Z,100567.00
2018-08-23T05:11:25.131Z,100576.00
2018-08-23T05:13:55.841Z,100568.00
2018-08-23T05:16:26.256Z,100573.00
2018-08-23T05:18:56.657Z,100562.00
2018-08-23T05:21:26.368Z,100568.00
2018-08-23T05:24:00.403Z,100569.00
2018-08-23T05:26:30.803Z,100574.00
2018-08-23T05:29:04.994Z,100564.00
2018-08-23T05:31:35.651Z,100569.00
2018-08-23T05:34:06.886Z,100570.00
2018-08-23T05:36:37.279Z,100569.00
2018-08-23T05:39:09.045Z,100567.00
2018-08-23T05:41:39.428Z,100562.00
2018-08-23T05:44:16.076Z,100565.00
2018-08-23T05:46:51.885Z,100561.00
2018-08-23T05:49:22.319Z,100563.00
2018-08-23T05:51:53.001Z,100561.00
2018-08-23T05:54:22.970Z,100569.00
2018-08-23T05:56:53.364Z,100562.00
2018-08-23T05:59:25.747Z,100577.00
2018-08-23T06:01:56.319Z,100566.00
2018-08-23T06:04:37.233Z,100558.00
2018-08-23T06:07:07.320Z,100565.00
2018-08-23T06:09:37.614Z,100565.00
2018-08-23T06:12:07.590Z,100561.00
2018-08-23T06:14:37.545Z,100561.00
2018-08-23T06:17:08.076Z,100557.00
2018-08-23T06:19:38.833Z,100551.00
2018-08-23T06:22:08.865Z,100558.00
2018-08-23T06:24:39.907Z,100560.00
2018-08-23T06:27:09.788Z,100554.00
2018-08-23T06:29:40.035Z,100558.00
2018-08-23T06:32:10.541Z,100558.00
2018-08-23T06:34:51.375Z,100558.00
2018-08-23T06:37:22.934Z,100560.00
2018-08-23T06:39:55.185Z,100561.00
2018-08-23T06:42:41.532Z,100562.00
2018-08-23T06:45:13.625Z,100554.00
2018-08-23T06:47:46.320Z,100558.00
2018-08-23T06:50:17.510Z,100549.00
2018-08-23T06:52:49.895Z,100553.00
2018-08-23T06:55:28.190Z,100545.00
2018-08-23T06:58:00.483Z,100543.00
2018-08-23T07:00:31.252Z,100553.00
2018-08-23T07:03:02.932Z,100538.00
2018-08-23T07:05:33.400Z,100544.00
2018-08-23T07:08:03.420Z,100546.00
2018-08-23T07:10:33.724Z,100555.00
2018-08-23T07:13:03.688Z,100543.00
2018-08-23T07:15:33.683Z,100542.00
2018-08-23T07:18:06.043Z,100543.00
2018-08-23T07:20:36.112Z,100536.00
2018-08-23T07:23:16.392Z,100539.00
2018-08-23T07:25:46.830Z,100549.00
2018-08-23T07:28:18.232Z,100547.00
2018-08-23T07:30:48.306Z,100546.00
2018-08-23T07:33:18.742Z,100545.00
2018-08-23T07:35:56.370Z,100544.00
2018-08-23T07:38:26.908Z,100548.00
2018-08-23T07:40:56.638Z,100549.00
2018-08-23T07:43:27.116Z,100556.00
2018-08-23T07:45:57.626Z,100551.00
2018-08-23T07:48:27.681Z,100544.00
2018-08-23T07:50:57.436Z,100544.00
2018-08-23T07:53:27.818Z,100542.00
2018-08-23T07:55:57.912Z,100548.00
2018-08-23T07:58:27.972Z,100543.00
2018-08-23T08:00:57.980Z,100546.00
2018-08-23T08:03:28.548Z,100548.00
2018-08-23T08:05:58.775Z,100546.00
2018-08-23T08:08:29.264Z,100544.00
2018-08-23T08:11:02.184Z,100541.00
2018-08-23T08:13:32.598Z,100550.00
2018-08-23T08:16:13.995Z,100551.00
2018-08-23T08:18:44.036Z,100550.00
2018-08-23T08:21:18.068Z,100550.00
2018-08-23T08:23:57.606Z,100557.00
2018-08-23T08:26:30.027Z,100559.00
2018-08-23T08:29:00.306Z,100562.00
2018-08-23T08:31:30.110Z,100555.00
2018-08-23T08:34:01.635Z,100551.00
2018-08-23T08:36:33.821Z,100550.00
2018-08-23T08:39:04.980Z,100551.00
2018-08-23T08:41:37.375Z,100555.00
2018-08-23T08:44:07.449Z,100551.00
2018-08-23T08:46:38.069Z,100543.00
2018-08-23T08:49:08.801Z,100543.00
2018-08-23T08:51:39.197Z,100532.00
2018-08-23T08:54:10.029Z,100528.00
2018-08-23T08:56:41.952Z,100534.00
2018-08-23T08:59:12.538Z,100534.00
2018-08-23T09:01:42.683Z,100536.00
2018-08-23T09:04:16.453Z,100522.00
2018-08-23T09:06:46.847Z,100528.00
2018-08-23T09:09:24.373Z,100523.00
2018-08-23T09:11:54.438Z,100524.00
2018-08-23T09:14:24.464Z,100511.00
2018-08-23T09:16:54.873Z,100512.00
2018-08-23T09:19:34.606Z,100515.00
2018-08-23T09:22:09.359Z,100510.00
2018-08-23T09:24:41.139Z,100500.00
2018-08-23T09:27:18.746Z,100503.00
2018-08-23T09:29:48.731Z,100505.00
2018-08-23T09:32:24.073Z,100499.00
2018-08-23T09:34:58.835Z,100490.00
2018-08-23T09:37:29.839Z,100500.00
2018-08-23T09:39:59.435Z,100490.00
2018-08-23T09:42:32.873Z,100496.00
2018-08-23T09:45:10.629Z,100485.00
2018-08-23T09:47:40.629Z,100488.00
2018-08-23T09:50:10.794Z,100482.00
2018-08-23T09:52:46.511Z,100470.00
2018-08-23T09:55:17.604Z,100469.00
2018-08-23T09:57:47.809Z,100470.00
2018-08-23T10:00:22.995Z,100461.00
2018-08-23T10:02:58.365Z,100479.00
2018-08-23T10:05:33.613Z,100467.00
2018-08-23T10:08:08.733Z,100462.00
2018-08-23T10:10:43.821Z,100454.00
2018-08-23T10:13:18.723Z,100467.00
2018-08-23T10:15:54.269Z,100462.00
2018-08-23T10:18:28.921Z,100463.00
2018-08-23T10:21:01.145Z,100457.00
2018-08-23T10:23:31.194Z,100461.00
2018-08-23T10:26:06.413Z,100460.00
2018-08-23T10:28:41.603Z,100455.00
2018-08-23T10:31:11.449Z,100448.00
2018-08-23T10:33:41.340Z,100440.00
2018-08-23T10:36:11.235Z,100438.00
2018-08-23T10:38:41.191Z,100439.00
2018-08-23T10:41:11.453Z,100448.00
2018-08-23T10:43:45.261Z,100447.00
2018-08-23T10:46:15.687Z,100448.00
2018-08-23T10:48:46.235Z,100448.00
2018-08-23T10:51:16.455Z,100442.00
2018-08-23T10:53:47.020Z,100436.00
2018-08-23T10:56:17.470Z,100452.00
2018-08-23T10:58:47.382Z,100451.00
2018-08-23T11:01:17.470Z,100448.00
2018-08-23T11:03:47.421Z,100435.00
2018-08-23T11:06:17.571Z,100435.00
2018-08-23T11:08:53.314Z,100442.00
2018-08-23T11:11:28.601Z,100428.00
2018-08-23T11:13:58.738Z,100428.00
2018-08-23T11:16:35.144Z,100423.00
2018-08-23T11:19:10.479Z,100430.00
2018-08-23T11:21:40.732Z,100426.00
2018-08-23T11:24:11.059Z,100423.00
2018-08-23T11:26:41.159Z,100410.00
2018-08-23T11:29:11.319Z,100407.00
2018-08-23T11:31:41.111Z,100402.00
2018-08-23T11:34:11.129Z,100401.00
2018-08-23T11:36:41.161Z,100406.00
2018-08-23T11:39:11.689Z,100407.00
2018-08-23T11:41:41.791Z,100398.00
2018-08-23T11:44:11.519Z,100404.00
2018-08-23T11:46:41.369Z,100389.00
2018-08-23T11:49:11.464Z,100384.00
2018-08-23T11:51:41.169Z,100384.00
2018-08-23T11:54:11.041Z,100378.00
2018-08-23T11:56:40.931Z,100381.00
2018-08-23T11:59:10.867Z,100381.00
2018-08-23T12:01:40.925Z,100381.00
2018-08-23T12:04:10.508Z,100389.00
2018-08-23T12:06:40.512Z,100381.00
2018-08-23T12:09:10.181Z,100379.00
2018-08-23T12:11:39.527Z,100375.00
2018-08-23T12:14:09.041Z,100377.00
2018-08-23T12:16:38.730Z,100372.00
2018-08-23T12:19:08.545Z,100367.00
2018-08-23T12:21:38.313Z,100363.00
2018-08-23T12:24:08.651Z,100371.00
2018-08-23T12:26:38.532Z,100358.00
2018-08-23T12:29:08.518Z,100357.00
2018-08-23T12:31:38.905Z,100365.00
2018-08-23T12:34:10.106Z,100357.00
2018-08-23T12:36:45.291Z,100351.00
2018-08-23T12:39:20.745Z,100353.00
2018-08-23T12:41:56.531Z,100341.00
2018-08-23T12:44:26.621Z,100349.00
2018-08-23T12:47:01.651Z,100342.00
2018-08-23T12:49:31.407Z,100348.00
2018-08-23T12:52:01.815Z,100337.00
2018-08-23T12:54:32.000Z,100351.00
2018-08-23T12:57:01.414Z,100343.00
2018-08-23T12:59:31.571Z,100326.00
2018-08-23T13:02:02.542Z,100320.00
2018-08-23T13:04:33.047Z,100317.00
2018-08-23T13:07:03.153Z,100320.00
2018-08-23T13:09:33.311Z,100318.00
2018-08-23T13:12:04.154Z,100312.00
2018-08-23T13:14:34.469Z,100316.00
2018-08-23T13:17:05.153Z,100304.00
2018-08-23T13:19:35.834Z,100311.00
2018-08-23T13:22:06.649Z,100302.00
2018-08-23T13:24:42.494Z,100301.00
2018-08-23T13:27:13.274Z,100291.00
2018-08-23T13:29:44.002Z,100300.00
2018-08-23T13:32:14.083Z,100288.00
2018-08-23T13:34:44.450Z,100294.00
2018-08-23T13:37:15.805Z,100286.00
2018-08-23T13:39:46.768Z,100292.00
2018-08-23T13:42:17.790Z,100295.00
2018-08-23T13:44:48.500Z,100287.00
2018-08-23T13:47:19.306Z,100282.00
2018-08-23T13:49:49.680Z,100266.00
2018-08-23T13:52:20.170Z,100277.00
2018-08-23T13:54:50.413Z,100290.00
2018-08-23T13:57:20.590Z,100281.00
2018-08-23T13:59:50.700Z,100273.00
2018-08-23T14:02:21.417Z,100278.00
2018-08-23T14:04:52.769Z,100281.00
2018-08-23T14:07:22.710Z,100271.00
2018-08-23T14:09:53.299Z,100268.00
2018-08-23T14:12:23.930Z,100268.00
2018-08-23T14:14:56.190Z,100265.00
2018-08-23T14:17:27.714Z,100262.00
2018-08-23T14:19:59.362Z,100256.00
2018-08-23T14:22:30.316Z,100258.00
2018-08-23T14:25:00.594Z,100252.00
2018-08-23T14:27:31.050Z,100263.00
2018-08-23T14:30:01.443Z,100262.00
2018-08-23T14:32:31.552Z,100264.00
2018-08-23T14:35:01.499Z,100262.00
2018-08-23T14:37:31.509Z,100260.00
2018-08-23T14:40:01.389Z,100256.00
2018-08-23T14:42:32.106Z,100265.00
2018-08-23T14:45:03.472Z,100252.00
2018-08-23T14:47:39.024Z,100250.00
2018-08-23T14:50:09.570Z,100254.00
2018-08-23T14:52:39.788Z,100250.00
2018-08-23T14:55:09.520Z,100251.00
2018-08-23T14:57:40.350Z,100251.00
2018-08-23T15:00:10.534Z,100248.00
2018-08-23T15:02:41.522Z,100247.00
2018-08-23T15:05:11.635Z,100248.00
2018-08-23T15:07:42.095Z,100247.00
2018-08-23T15:10:12.348Z,100241.00
2018-08-23T15:12:43.105Z,100239.00
2018-08-23T15:15:13.388Z,100234.00
2018-08-23T15:17:44.077Z,100235.00
2018-08-23T15:20:14.608Z,100231.00
2018-08-23T15:22:45.712Z,100237.00
2018-08-23T15:25:16.170Z,100234.00
2018-08-23T15:27:47.645Z,100232.00
2018-08-23T15:30:17.745Z,100227.00
2018-08-23T15:32:47.853Z,100217.00
2018-08-23T15:35:17.910Z,100223.00
2018-08-23T15:37:48.804Z,100212.00
2018-08-23T15:40:19.565Z,100227.00
2018-08-23T15:42:51.037Z,100216.00
2018-08-23T15:45:21.802Z,100213.00
2018-08-23T15:47:51.961Z,100215.00
2018-08-23T15:50:23.897Z,100216.00
2018-08-23T15:52:55.519Z,100217.00
2018-08-23T15:55:26.043Z,100214.00
2018-08-23T15:57:57.182Z,100217.00
2018-08-23T16:00:31.832Z,100230.00
2018-08-23T16:03:02.921Z,100218.00
2018-08-23T16:05:33.638Z,100213.00
2018-08-23T16:08:07.826Z,100219.00
2018-08-23T16:10:38.411Z,100223.00
2018-08-23T16:13:09.022Z,100213.00
2018-08-23T16:15:39.551Z,100208.00
2018-08-23T16:18:15.956Z,100214.00
2018-08-23T16:20:47.965Z,100220.00
2018-08-23T16:23:18.704Z,100210.00
2018-08-23T16:25:49.156Z,100207.00
2018-08-23T16:28:19.524Z,100205.00
2018-08-23T16:30:49.408Z,100210.00
2018-08-23T16:33:20.865Z,100205.00
2018-08-23T16:35:51.881Z,100197.00
2018-08-23T16:38:24.279Z,100196.00
2018-08-23T16:40:55.543Z,100200.00
2018-08-23T16:43:26.005Z,100198.00
2018-08-23T16:45:56.588Z,100191.00
2018-08-23T16:48:27.624Z,100191.00
2018-08-23T16:50:58.034Z,100188.00
2018-08-23T16:53:29.131Z,100188.00
2018-08-23T16:55:59.517Z,100190.00
2018-08-23T16:58:30.548Z,100179.00
2018-08-23T17:01:01.370Z,100177.00
2018-08-23T17:03:32.698Z,100182.00
2018-08-23T17:06:03.524Z,100185.00
2018-08-23T17:08:35.052Z,100180.00
2018-08-23T17:11:06.025Z,100182.00
2018-08-23T17:13:37.742Z,100180.00
2018-08-23T17:16:13.534Z,100180.00
2018-08-23T17:18:44.139Z,100174.00
2018-08-23T17:21:14.675Z,100175.00
2018-08-23T17:23:45.734Z,100178.00
2018-08-23T17:26:16.203Z,100185.00
2018-08-23T17:28:47.894Z,100185.00
2018-08-23T17:31:18.706Z,100186.00
2018-08-23T17:33:49.406Z,100188.00
2018-08-23T17:36:21.822Z,100182.00
2018-08-23T17:38:52.971Z,100184.00
2018-08-23T17:41:24.120Z,100186.00
2018-08-23T17:43:58.400Z,100187.00
2018-08-23T17:46:34.061Z,100185.00
2018-08-23T17:49:10.209Z,100174.00
2018-08-23T17:51:43.028Z,100177.00
2018-08-23T17:54:19.336Z,100185.00
2018-08-23T17:59:48.163Z,100191.00
2018-08-23T18:02:19.782Z,100184.00
2018-08-23T18:04:52.163Z,100182.00
2018-08-23T18:16:28.541Z,100178.00
2018-08-23T18:19:02.598Z,100181.00
2018-08-23T18:21:33.800Z,100176.00
2018-08-23T18:24:09.236Z,100169.00
2018-08-23T18:26:44.688Z,100160.00
2018-08-23T18:29:20.907Z,100166.00
2018-08-23T18:31:51.817Z,100164.00
2018-08-23T18:34:22.104Z,100170.00
2018-08-23T18:36:51.982Z,100170.00
2018-08-23T18:39:22.695Z,100163.00
2018-08-23T18:41:52.803Z,100167.00
2018-08-23T18:44:22.003Z,100164.00
2018-08-23T18:46:51.253Z,100167.00
2018-08-23T18:49:20.377Z,100162.00
2018-08-23T18:51:49.611Z,100161.00
2018-08-23T18:54:18.867Z,100156.00
2018-08-23T18:56:49.425Z,100161.00
2018-08-23T18:59:18.651Z,100172.00
2018-08-23T19:01:48.089Z,100167.00
2018-08-23T19:04:19.673Z,100173.00
2018-08-23T19:06:48.990Z,100172.00
2018-08-23T19:09:18.069Z,100182.00
2018-08-23T19:11:47.351Z,100181.00
2018-08-23T19:14:16.853Z,100190.00
2018-08-23T19:16:51.524Z,100184.00
2018-08-23T19:19:21.055Z,100187.00
2018-08-23T19:21:50.376Z,100189.00
2018-08-23T19:24:19.701Z,100191.00
2018-08-23T19:26:49.051Z,100182.00
2018-08-23T19:29:18.359Z,100194.00
2018-08-23T19:31:47.514Z,100181.00
2018-08-23T19:34:16.695Z,100184.00
2018-08-23T19:36:46.067Z,100185.00
2018-08-23T19:39:15.523Z,100188.00
2018-08-23T19:41:44.665Z,100192.00
2018-08-23T19:44:13.765Z,100192.00
2018-08-23T19:46:48.111Z,100185.00
2018-08-23T19:49:22.711Z,100181.00
2018-08-23T19:51:51.768Z,100179.00
2018-08-23T19:54:21.511Z,100181.00
2018-08-23T19:56:50.823Z,100178.00
2018-08-23T19:59:20.125Z,100190.00
2018-08-23T20:01:49.296Z,100181.00
2018-08-23T20:04:18.490Z,100183.00
2018-08-23T20:06:47.956Z,100183.00
2018-08-23T20:09:17.258Z,100193.00
2018-08-23T20:11:46.554Z,100183.00
2018-08-23T20:14:15.904Z,100176.00
2018-08-23T20:16:45.095Z,100180.00
2018-08-23T20:19:14.482Z,100181.00
2018-08-23T20:21:43.803Z,100183.00
2018-08-23T20:24:13.056Z,100184.00
2018-08-23T20:26:42.207Z,100186.00
2018-08-23T20:29:11.491Z,100180.00
2018-08-23T20:31:40.685Z,100178.00
2018-08-23T20:34:09.740Z,100179.00
2018-08-23T20:36:39.074Z,100181.00
2018-08-23T20:39:11.754Z,100188.00
2018-08-23T20:41:41.582Z,100185.00
2018-08-23T20:44:10.947Z,100179.00
2018-08-23T20:46:40.530Z,100186.00
2018-08-23T20:49:10.275Z,100173.00
2018-08-23T20:51:39.960Z,100188.00
2018-08-23T20:54:09.740Z,100192.00
2018-08-23T20:56:38.865Z,100191.00
2018-08-23T20:59:08.219Z,100187.00
2018-08-23T21:01:37.365Z,100193.00
2018-08-23T21:04:06.625Z,100187.00
2018-08-23T21:06:36.194Z,100187.00
2018-08-23T21:09:09.633Z,100183.00
2018-08-23T21:11:39.543Z,100188.00
2018-08-23T21:14:09.583Z,100191.00
2018-08-23T21:16:39.179Z,100186.00
2018-08-23T21:19:08.725Z,100183.00
2018-08-23T21:21:37.952Z,100188.00
2018-08-23T21:24:07.180Z,100186.00
2018-08-23T21:26:36.507Z,100189.00
2018-08-23T21:29:05.603Z,100188.00
2018-08-23T21:31:34.947Z,100185.00
2018-08-23T21:34:04.173Z,100186.00
2018-08-23T21:36:33.392Z,100187.00
2018-08-23T21:39:02.625Z,100193.00
2018-08-23T21:41:31.812Z,100191.00
2018-08-23T21:44:01.085Z,100195.00
2018-08-23T21:46:30.430Z,100190.00
2018-08-23T21:48:59.559Z,100182.00
2018-08-23T21:51:28.591Z,100184.00
2018-08-23T21:53:58.296Z,100186.00
2018-08-23T21:56:27.495Z,100186.00
2018-08-23T21:58:56.550Z,100183.00
2018-08-23T22:01:25.957Z,100180.00
2018-08-23T22:03:55.044Z,100181.00
2018-08-23T22:06:24.273Z,100188.00
2018-08-23T22:08:53.338Z,100174.00
2018-08-23T22:11:22.759Z,100170.00
2018-08-23T22:13:51.890Z,100166.00
2018-08-23T22:16:21.135Z,100168.00
2018-08-23T22:18:50.300Z,100173.00
2018-08-23T22:21:19.641Z,100176.00
2018-08-23T22:23:48.797Z,100181.00
2018-08-23T22:26:18.211Z,100181.00
2018-08-23T22:28:47.247Z,100173.00
2018-08-23T22:31:16.890Z,100175.00
2018-08-23T22:33:46.088Z,100169.00
2018-08-23T22:36:15.632Z,100164.00
2018-08-23T22:38:44.702Z,100158.00
2018-08-23T22:41:14.032Z,100164.00
2018-08-23T22:43:43.119Z,100176.00
2018-08-23T22:46:12.572Z,100169.00
2018-08-23T22:48:41.727Z,100176.00
2018-08-23T22:51:10.882Z,100180.00
2018-08-23T22:53:40.033Z,100174.00
2018-08-23T22:56:09.225Z,100167.00
2018-08-23T22:58:38.615Z,100174.00
2018-08-23T23:01:07.861Z,100178.00
2018-08-23T23:03:42.251Z,100165.00
2018-08-23T23:06:11.335Z,100165.00
2018-08-23T23:08:40.419Z,100161.00
2018-08-23T23:11:09.606Z,100169.00
2018-08-23T23:13:38.705Z,100170.00
2018-08-23T23:16:08.123Z,100159.00
2018-08-23T23:18:37.167Z,100166.00
2018-08-23T23:21:06.354Z,100165.00
2018-08-23T23:23:35.855Z,100166.00
2018-08-23T23:26:04.969Z,100172.00
2018-08-23T23:28:34.023Z,100159.00
2018-08-23T23:31:03.266Z,100162.00
2018-08-23T23:33:32.433Z,100166.00
2018-08-23T23:36:01.677Z,100151.00
2018-08-23T23:38:31.169Z,100152.00
2018-08-23T23:41:00.515Z,100154.00
2018-08-23T23:43:29.706Z,100149.00
2018-08-23T23:45:58.845Z,100150.00
2018-08-23T23:48:27.998Z,100140.00
2018-08-23T23:50:57.041Z,100155.00
2018-08-23T23:53:26.096Z,100143.00
2018-08-23T23:55:55.241Z,100146.00
2018-08-23T23:58:24.321Z,100142.00
